createdAt,value
2019-03-21T00:05:07.651Z,98409.58
2019-03-21T00:22:47.281Z,98408.77
2019-03-21T00:32:21.234Z,98406.59
2019-03-21T00:34:51.751Z,98412.16
2019-03-21T00:37:22.707Z,98415.78
2019-03-21T00:39:59.269Z,98408.20
2019-03-21T00:42:31.988Z,98408.20
2019-03-21T00:45:04.623Z,98405.57
2019-03-21T00:47:35.788Z,98403.70
2019-03-21T00:50:09.361Z,98411.55
2019-03-21T00:52:42.671Z,98400.66
2019-03-21T00:55:14.224Z,98402.10
2019-03-21T00:57:46.355Z,98394.14
2019-03-21T01:00:28.647Z,98388.38
2019-03-21T01:03:03.800Z,98388.38
2019-03-21T01:05:36.807Z,98383.27
2019-03-21T01:08:11.878Z,98383.27
2019-03-21T01:10:42.912Z,98384.03
2019-03-21T01:13:13.753Z,98386.34
2019-03-21T01:15:46.035Z,98386.34
2019-03-21T01:18:17.697Z,98384.94
2019-03-21T01:20:48.705Z,98377.55
2019-03-21T01:23:21.342Z,98383.44
2019-03-21T01:25:55.214Z,98383.44
2019-03-21T01:28:26.280Z,98377.31
2019-03-21T01:30:57.121Z,98377.31
2019-03-21T01:33:27.859Z,98381.96
2019-03-21T01:35:58.415Z,98381.96
2019-03-21T01:38:30.136Z,98369.73
2019-03-21T01:41:15.507Z,98362.66
2019-03-21T01:43:47.656Z,98352.67
2019-03-21T01:46:20.036Z,98354.39
2019-03-21T01:48:51.498Z,98354.39
2019-03-21T01:51:22.646Z,98349.44
2019-03-21T01:53:55.816Z,98353.53
2019-03-21T01:56:27.698Z,98358.78
2019-03-21T01:59:01.506Z,98358.78
2019-03-21T02:01:32.456Z,98340.52
2019-03-21T02:04:02.759Z,98348.86
2019-03-21T02:06:33.462Z,98360.87
2019-03-21T02:09:06.598Z,98336.83
2019-03-21T02:11:38.899Z,98336.83
2019-03-21T02:14:11.041Z,98336.20
2019-03-21T02:16:44.449Z,98331.37
2019-03-21T02:19:14.993Z,98338.31
2019-03-21T02:21:46.021Z,98334.61
2019-03-21T02:24:16.872Z,98333.73
2019-03-21T02:26:49.519Z,98333.73
2019-03-21T02:29:28.417Z,98344.42
2019-03-21T02:31:59.187Z,98335.33
2019-03-21T02:34:30.103Z,98335.33
2019-03-21T02:37:00.530Z,98335.13
2019-03-21T02:39:31.548Z,98336.22
2019-03-21T02:42:02.105Z,98342.59
2019-03-21T02:44:34.879Z,98343.77
2019-03-21T02:47:05.386Z,98342.33
2019-03-21T02:49:36.140Z,98342.33
2019-03-21T02:52:07.024Z,98343.33
2019-03-21T02:54:37.617Z,98339.70
2019-03-21T02:57:11.367Z,98337.92
2019-03-21T02:59:41.863Z,98347.27
2019-03-21T03:02:15.437Z,98337.98
2019-03-21T03:04:48.093Z,98336.27
2019-03-21T03:07:18.914Z,98336.27
2019-03-21T03:09:50.274Z,98346.05
2019-03-21T03:15:01.937Z,98343.36
2019-03-21T03:17:34.602Z,98333.23
2019-03-21T03:20:08.156Z,98352.81
2019-03-21T03:22:38.909Z,98354.94
2019-03-21T03:25:12.812Z,98346.98
2019-03-21T03:27:44.502Z,98344.63
2019-03-21T03:30:24.425Z,98344.63
2019-03-21T03:32:55.273Z,98338.76
2019-03-21T03:35:25.820Z,98346.27
2019-03-21T03:37:57.857Z,98340.80
2019-03-21T03:40:35.148Z,98347.36
2019-03-21T03:43:09.867Z,98339.36
2019-03-21T03:45:42.480Z,98338.09
2019-03-21T03:48:12.838Z,98338.09
2019-03-21T03:50:43.385Z,98335.86
2019-03-21T03:53:17.470Z,98352.02
2019-03-21T03:55:47.696Z,98352.02
2019-03-21T03:58:27.707Z,98346.67
2019-03-21T04:00:59.792Z,98345.41
2019-03-21T04:03:32.067Z,98345.72
2019-03-21T04:06:07.386Z,98339.00
2019-03-21T04:08:39.392Z,98349.33
2019-03-21T04:11:10.127Z,98343.91
2019-03-21T04:13:42.574Z,98350.26
2019-03-21T04:16:15.559Z,98350.26
2019-03-21T04:18:49.348Z,98340.99
2019-03-21T04:21:21.992Z,98349.89
2019-03-21T04:23:54.394Z,98339.70
2019-03-21T04:26:39.525Z,98346.19
2019-03-21T04:29:10.302Z,98346.78
2019-03-21T04:31:40.678Z,98342.94
2019-03-21T04:34:11.681Z,98345.61
2019-03-21T04:36:42.134Z,98340.66
2019-03-21T04:39:13.267Z,98337.98
2019-03-21T04:41:48.267Z,98347.91
2019-03-21T04:44:20.441Z,98334.99
2019-03-21T04:46:52.428Z,98345.05
2019-03-21T04:49:23.323Z,98345.05
2019-03-21T04:51:56.988Z,98346.83
2019-03-21T04:54:28.080Z,98346.83
2019-03-21T04:56:58.444Z,98353.20
2019-03-21T04:59:30.958Z,98353.20
2019-03-21T05:02:02.006Z,98346.52
2019-03-21T05:04:33.106Z,98354.65
2019-03-21T05:07:05.804Z,98355.77
2019-03-21T05:09:56.940Z,98354.13
2019-03-21T05:12:28.666Z,98346.69
2019-03-21T05:15:00.431Z,98350.77
2019-03-21T05:17:31.212Z,98352.72
2019-03-21T05:20:03.854Z,98352.72
2019-03-21T05:22:34.707Z,98355.46
2019-03-21T05:25:07.568Z,98348.79
2019-03-21T05:27:37.926Z,98352.10
2019-03-21T05:30:17.580Z,98339.66
2019-03-21T05:32:49.219Z,98357.83
2019-03-21T05:35:20.145Z,98349.87
2019-03-21T05:37:50.851Z,98366.70
2019-03-21T05:40:22.619Z,98371.92
2019-03-21T05:43:04.515Z,98381.36
2019-03-21T05:45:34.560Z,98375.83
2019-03-21T05:48:05.892Z,98377.73
2019-03-21T05:50:36.694Z,98379.63
2019-03-21T05:53:09.127Z,98389.25
2019-03-21T05:55:39.595Z,98393.34
2019-03-21T05:58:11.397Z,98384.98
2019-03-21T06:00:45.109Z,98389.47
2019-03-21T06:03:18.421Z,98394.35
2019-03-21T06:05:54.825Z,98396.06
2019-03-21T06:08:28.841Z,98397.84
2019-03-21T06:11:07.453Z,98407.95
2019-03-21T06:13:40.324Z,98412.16
2019-03-21T06:16:13.855Z,98406.84
2019-03-21T06:18:54.274Z,98414.69
2019-03-21T06:21:28.450Z,98414.66
2019-03-21T06:24:24.533Z,98422.52
2019-03-21T06:27:14.119Z,98422.17
2019-03-21T06:29:38.976Z,98425.38
2019-03-21T06:32:09.346Z,98431.25
2019-03-21T06:34:39.647Z,98432.16
2019-03-21T06:37:13.423Z,98432.02
2019-03-21T06:39:45.035Z,98434.80
2019-03-21T06:42:16.923Z,98442.77
2019-03-21T06:44:47.609Z,98444.44
2019-03-21T06:47:21.243Z,98444.95
2019-03-21T06:49:51.687Z,98444.72
2019-03-21T06:52:24.119Z,98445.60
2019-03-21T06:54:54.331Z,98452.82
2019-03-21T06:57:25.838Z,98454.67
2019-03-21T06:59:57.029Z,98454.06
2019-03-21T07:02:27.798Z,98455.66
2019-03-21T07:04:58.198Z,98459.42
2019-03-21T07:07:28.568Z,98457.82
2019-03-21T07:10:04.561Z,98459.20
2019-03-21T07:12:35.282Z,98460.75
2019-03-21T07:15:08.750Z,98462.22
2019-03-21T07:17:45.755Z,98463.53
2019-03-21T07:20:21.809Z,98467.80
2019-03-21T07:22:53.971Z,98469.37
2019-03-21T07:25:25.359Z,98474.52
2019-03-21T07:31:15.849Z,98474.58
2019-03-21T07:33:46.290Z,98476.02
2019-03-21T07:36:17.827Z,98475.56
2019-03-21T07:38:48.718Z,98481.17
2019-03-21T07:41:20.653Z,98473.67
2019-03-21T07:43:51.005Z,98476.46
2019-03-21T07:46:21.132Z,98471.55
2019-03-21T07:48:53.320Z,98478.09
2019-03-21T07:51:24.956Z,98483.14
2019-03-21T07:53:56.758Z,98478.98
2019-03-21T07:56:28.720Z,98480.56
2019-03-21T07:59:02.019Z,98486.47
2019-03-21T08:01:33.759Z,98486.39
2019-03-21T08:04:03.978Z,98492.52
2019-03-21T08:06:33.980Z,98495.32
2019-03-21T08:09:08.378Z,98492.52
2019-03-21T08:11:42.000Z,98493.13
2019-03-21T08:14:12.391Z,98491.00
2019-03-21T08:16:43.364Z,98490.80
2019-03-21T08:19:13.488Z,98493.41
2019-03-21T08:21:43.857Z,98488.70
2019-03-21T08:24:19.973Z,98489.63
2019-03-21T08:26:51.501Z,98502.68
2019-03-21T08:29:23.030Z,98488.27
2019-03-21T08:31:54.051Z,98498.56
2019-03-21T08:34:25.383Z,98499.84
2019-03-21T08:36:55.706Z,98499.01
2019-03-21T08:39:26.901Z,98492.23
2019-03-21T08:41:58.615Z,98503.21
2019-03-21T08:44:31.162Z,98489.00
2019-03-21T08:47:00.946Z,98497.77
2019-03-21T08:49:32.926Z,98498.43
2019-03-21T08:52:04.203Z,98497.67
2019-03-21T08:54:37.068Z,98497.31
2019-03-21T08:57:07.644Z,98486.25
2019-03-21T08:59:38.155Z,98493.09
2019-03-21T09:02:10.649Z,98495.20
2019-03-21T09:04:42.609Z,98499.37
2019-03-21T09:07:14.345Z,98501.84
2019-03-21T09:09:44.429Z,98504.16
2019-03-21T09:12:14.566Z,98501.73
2019-03-21T09:14:47.634Z,98508.66
2019-03-21T09:17:19.043Z,98504.99
2019-03-21T09:19:49.406Z,98505.59
2019-03-21T09:22:20.871Z,98511.50
2019-03-21T09:24:51.667Z,98501.67
2019-03-21T09:27:22.302Z,98496.12
2019-03-21T09:29:55.702Z,98495.16
2019-03-21T09:32:26.947Z,98493.73
2019-03-21T09:34:58.288Z,98498.87
2019-03-21T09:37:31.682Z,98494.16
2019-03-21T09:40:04.024Z,98511.56
2019-03-21T09:42:37.039Z,98507.70
2019-03-21T09:45:11.509Z,98504.88
2019-03-21T09:47:43.742Z,98501.09
2019-03-21T09:50:18.269Z,98502.19
2019-03-21T09:52:50.071Z,98503.39
2019-03-21T09:55:22.338Z,98496.88
2019-03-21T09:57:53.884Z,98497.34
2019-03-21T10:00:31.616Z,98495.77
2019-03-21T10:03:02.223Z,98494.19
2019-03-21T10:05:34.641Z,98500.63
2019-03-21T10:08:09.849Z,98504.78
2019-03-21T10:10:39.960Z,98494.30
2019-03-21T10:13:13.318Z,98497.73
2019-03-21T10:15:45.384Z,98497.97
2019-03-21T10:18:17.119Z,98492.59
2019-03-21T10:20:48.650Z,98484.34
2019-03-21T10:23:18.901Z,98474.55
2019-03-21T10:25:49.825Z,98481.41
2019-03-21T10:28:21.602Z,98480.88
2019-03-21T10:30:57.284Z,98476.67
2019-03-21T10:33:29.301Z,98478.09
2019-03-21T10:36:00.181Z,98477.90
2019-03-21T10:38:31.363Z,98467.23
2019-03-21T10:41:01.647Z,98467.97
2019-03-21T10:43:33.491Z,98469.91
2019-03-21T10:46:04.303Z,98460.23
2019-03-21T10:48:34.601Z,98450.50
2019-03-21T10:51:05.863Z,98455.66
2019-03-21T10:53:36.737Z,98457.61
2019-03-21T10:56:07.567Z,98458.10
2019-03-21T10:58:37.900Z,98448.64
2019-03-21T11:01:10.278Z,98447.25
2019-03-21T11:03:40.837Z,98448.48
2019-03-21T11:06:10.914Z,98448.61
2019-03-21T11:08:41.159Z,98443.50
2019-03-21T11:11:13.018Z,98437.97
2019-03-21T11:13:43.738Z,98439.59
2019-03-21T11:16:15.392Z,98436.61
2019-03-21T11:18:47.647Z,98431.84
2019-03-21T11:21:19.721Z,98428.00
2019-03-21T11:23:50.372Z,98417.83
2019-03-21T11:26:22.197Z,98426.78
2019-03-21T11:28:53.595Z,98429.10
2019-03-21T11:31:24.116Z,98417.66
2019-03-21T11:33:54.282Z,98420.76
2019-03-21T11:36:24.775Z,98423.48
2019-03-21T11:38:56.936Z,98426.50
2019-03-21T11:41:31.384Z,98410.13
2019-03-21T11:44:01.486Z,98408.23
2019-03-21T11:46:32.519Z,98404.41
2019-03-21T11:49:03.087Z,98404.09
2019-03-21T11:51:33.902Z,98401.27
2019-03-21T11:54:10.027Z,98397.62
2019-03-21T11:56:41.765Z,98401.16
2019-03-21T11:59:12.032Z,98396.95
2019-03-21T12:01:42.002Z,98394.59
2019-03-21T12:04:12.165Z,98399.52
2019-03-21T12:06:43.902Z,98390.73
2019-03-21T12:09:15.172Z,98399.39
2019-03-21T12:11:45.710Z,98392.28
2019-03-21T12:14:16.356Z,98382.86
2019-03-21T12:16:47.212Z,98378.66
2019-03-21T12:19:17.917Z,98379.83
2019-03-21T12:21:48.661Z,98376.03
2019-03-21T12:24:18.692Z,98370.78
2019-03-21T12:26:50.437Z,98364.84
2019-03-21T12:29:21.651Z,98371.57
2019-03-21T12:31:51.719Z,98364.27
2019-03-21T12:34:22.170Z,98366.19
2019-03-21T12:36:55.188Z,98363.23
2019-03-21T12:39:28.840Z,98355.59
2019-03-21T12:42:00.374Z,98360.48
2019-03-21T12:44:32.496Z,98362.36
2019-03-21T12:47:04.709Z,98358.83
2019-03-21T12:49:36.732Z,98360.55
2019-03-21T12:52:06.968Z,98363.20
2019-03-21T12:54:37.831Z,98356.08
2019-03-21T12:57:08.229Z,98343.46
2019-03-21T12:59:38.526Z,98342.11
2019-03-21T13:02:10.826Z,98337.48
2019-03-21T13:04:41.483Z,98337.23
2019-03-21T13:07:11.421Z,98335.68
2019-03-21T13:09:44.888Z,98340.05
2019-03-21T13:12:14.979Z,98332.42
2019-03-21T13:14:45.264Z,98334.59
2019-03-21T13:17:15.325Z,98336.47
2019-03-21T13:19:45.823Z,98329.17
2019-03-21T13:22:15.953Z,98329.38
2019-03-21T13:24:46.261Z,98321.37
2019-03-21T13:27:17.457Z,98314.27
2019-03-21T13:29:49.414Z,98328.19
2019-03-21T13:32:20.568Z,98323.06
2019-03-21T13:34:50.941Z,98320.88
2019-03-21T13:37:22.980Z,98316.11
2019-03-21T13:39:53.973Z,98319.89
2019-03-21T13:42:25.578Z,98325.19
2019-03-21T13:44:57.843Z,98321.43
2019-03-21T13:47:27.990Z,98328.53
2019-03-21T13:49:58.208Z,98329.15
2019-03-21T13:52:28.418Z,98318.70
2019-03-21T13:55:00.816Z,98322.75
2019-03-21T13:57:32.822Z,98312.55
2019-03-21T14:00:09.644Z,98301.95
2019-03-21T14:02:41.983Z,98306.77
2019-03-21T14:05:13.367Z,98308.89
2019-03-21T14:07:46.545Z,98306.41
2019-03-21T14:10:17.700Z,98309.27
2019-03-21T14:12:47.966Z,98318.72
2019-03-21T14:15:19.397Z,98312.31
2019-03-21T14:17:49.947Z,98312.45
2019-03-21T14:20:20.452Z,98314.42
2019-03-21T14:22:51.715Z,98312.61
2019-03-21T14:25:22.474Z,98317.11
2019-03-21T14:27:53.085Z,98299.68
2019-03-21T14:30:25.067Z,98314.44
2019-03-21T14:32:56.869Z,98314.08
2019-03-21T14:35:30.536Z,98303.90
2019-03-21T14:38:00.838Z,98310.48
2019-03-21T14:40:33.356Z,98305.00
2019-03-21T14:43:07.138Z,98306.93
2019-03-21T14:45:39.928Z,98305.42
2019-03-21T14:48:13.463Z,98304.33
2019-03-21T14:50:44.362Z,98303.07
2019-03-21T14:53:28.047Z,98301.60
2019-03-21T14:55:48.420Z,98296.69
2019-03-21T14:58:19.375Z,98294.45
2019-03-21T15:00:49.701Z,98293.19
2019-03-21T15:03:20.368Z,98292.58
2019-03-21T15:05:51.580Z,98293.47
2019-03-21T15:08:21.969Z,98282.92
2019-03-21T15:10:52.479Z,98288.62
2019-03-21T15:13:23.284Z,98286.05
2019-03-21T15:15:54.545Z,98287.88
2019-03-21T15:18:24.752Z,98277.91
2019-03-21T15:20:54.963Z,98281.92
2019-03-21T15:23:26.044Z,98286.17
2019-03-21T15:25:57.178Z,98281.91
2019-03-21T15:28:29.848Z,98287.08
2019-03-21T15:31:01.282Z,98288.38
2019-03-21T15:33:32.375Z,98292.69
2019-03-21T15:36:09.811Z,98277.41
2019-03-21T15:38:42.183Z,98290.33
2019-03-21T15:41:13.221Z,98294.25
2019-03-21T15:43:45.231Z,98289.09
2019-03-21T15:46:15.626Z,98296.52
2019-03-21T15:48:50.090Z,98292.05
2019-03-21T15:51:21.923Z,98293.02
2019-03-21T15:53:56.493Z,98301.89
2019-03-21T15:56:27.206Z,98303.89
2019-03-21T15:58:59.303Z,98291.60
2019-03-21T16:01:31.429Z,98295.28
2019-03-21T16:04:04.991Z,98293.81
2019-03-21T16:06:35.775Z,98283.59
2019-03-21T16:09:10.593Z,98302.18
2019-03-21T16:11:41.281Z,98309.63
2019-03-21T16:14:13.058Z,98316.00
2019-03-21T16:16:43.748Z,98307.12
2019-03-21T16:19:14.910Z,98307.27
2019-03-21T16:21:48.611Z,98304.41
2019-03-21T16:24:19.201Z,98303.97
2019-03-21T16:26:51.281Z,98309.83
2019-03-21T16:29:22.791Z,98311.88
2019-03-21T16:31:53.967Z,98314.48
2019-03-21T16:34:27.386Z,98318.92
2019-03-21T16:37:00.221Z,98316.36
2019-03-21T16:39:32.027Z,98313.52
2019-03-21T16:42:03.792Z,98319.37
2019-03-21T16:44:38.193Z,98312.95
2019-03-21T16:47:08.736Z,98311.53
2019-03-21T16:49:40.380Z,98320.98
2019-03-21T16:52:11.452Z,98319.94
2019-03-21T16:54:44.004Z,98319.52
2019-03-21T16:57:15.696Z,98331.20
2019-03-21T16:59:46.246Z,98331.95
2019-03-21T17:02:18.658Z,98339.23
2019-03-21T17:04:51.780Z,98333.59
2019-03-21T17:07:22.504Z,98340.81
2019-03-21T17:09:53.754Z,98346.61
2019-03-21T17:12:26.051Z,98347.35
2019-03-21T17:14:58.658Z,98347.06
2019-03-21T17:17:29.437Z,98347.59
2019-03-21T17:20:02.607Z,98347.59
2019-03-21T17:22:33.792Z,98352.16
2019-03-21T17:25:06.742Z,98350.76
2019-03-21T17:27:38.536Z,98350.31
2019-03-21T17:33:05.238Z,98359.21
2019-03-21T17:35:35.701Z,98353.45
2019-03-21T17:38:06.893Z,98365.83
2019-03-21T17:40:38.183Z,98356.82
2019-03-21T17:43:12.524Z,98366.77
2019-03-21T17:45:43.915Z,98369.31
2019-03-21T17:48:17.048Z,98367.22
2019-03-21T17:50:49.057Z,98364.77
2019-03-21T17:53:21.569Z,98362.22
2019-03-21T17:55:52.363Z,98362.52
2019-03-21T17:58:22.801Z,98364.30
2019-03-21T18:00:55.641Z,98364.31
2019-03-21T18:03:27.596Z,98371.30
2019-03-21T18:06:01.207Z,98366.50
2019-03-21T18:08:35.622Z,98368.02
2019-03-21T18:11:07.831Z,98376.44
2019-03-21T18:13:40.056Z,98376.44
2019-03-21T18:16:12.374Z,98380.55
2019-03-21T18:18:43.938Z,98389.77
2019-03-21T18:21:14.897Z,98394.48
2019-03-21T18:23:46.252Z,98394.77
2019-03-21T18:26:19.079Z,98394.31
2019-03-21T18:28:50.067Z,98391.23
2019-03-21T18:31:20.505Z,98396.23
2019-03-21T18:33:59.302Z,98400.61
2019-03-21T18:36:30.814Z,98404.02
2019-03-21T18:39:04.566Z,98406.27
2019-03-21T18:41:35.000Z,98408.61
2019-03-21T18:44:06.184Z,98407.31
2019-03-21T18:46:36.382Z,98412.72
2019-03-21T18:49:17.817Z,98416.63
2019-03-21T18:51:50.097Z,98405.48
2019-03-21T18:54:22.203Z,98417.70
2019-03-21T18:56:53.167Z,98418.65
2019-03-21T18:59:23.609Z,98423.12
2019-03-21T19:01:59.241Z,98416.29
2019-03-21T19:04:31.690Z,98426.57
2019-03-21T19:07:02.877Z,98426.09
2019-03-21T19:09:35.388Z,98428.82
2019-03-21T19:12:06.137Z,98428.02
2019-03-21T19:14:41.292Z,98419.15
2019-03-21T19:17:17.851Z,98420.02
2019-03-21T19:19:50.354Z,98431.16
2019-03-21T19:22:21.776Z,98434.38
2019-03-21T19:24:56.251Z,98436.23
2019-03-21T19:27:28.060Z,98434.48
2019-03-21T19:30:03.105Z,98433.36
2019-03-21T19:32:36.304Z,98437.89
2019-03-21T19:35:07.590Z,98433.27
2019-03-21T19:37:38.541Z,98437.94
2019-03-21T19:40:11.980Z,98427.92
2019-03-21T19:42:45.217Z,98435.76
2019-03-21T19:45:18.880Z,98436.98
2019-03-21T19:47:53.941Z,98448.08
2019-03-21T19:50:29.755Z,98434.62
2019-03-21T19:53:02.058Z,98440.41
2019-03-21T19:55:34.644Z,98441.62
2019-03-21T19:58:07.901Z,98441.97
2019-03-21T20:00:40.997Z,98439.36
2019-03-21T20:03:15.540Z,98439.78
2019-03-21T20:05:47.745Z,98447.44
2019-03-21T20:08:21.526Z,98447.13
2019-03-21T20:10:55.831Z,98450.34
2019-03-21T20:13:28.093Z,98449.83
2019-03-21T20:16:14.867Z,98452.50
2019-03-21T20:19:01.467Z,98454.58
2019-03-21T20:21:47.795Z,98451.28
2019-03-21T20:24:22.539Z,98448.47
2019-03-21T20:27:05.893Z,98454.77
2019-03-21T20:29:45.390Z,98459.34
2019-03-21T20:32:32.639Z,98455.91
2019-03-21T20:35:13.155Z,98455.11
2019-03-21T20:37:48.756Z,98457.80
2019-03-21T20:40:32.360Z,98456.55
2019-03-21T20:43:07.753Z,98464.70
2019-03-21T20:45:52.672Z,98466.16
2019-03-21T20:48:32.397Z,98465.73
2019-03-21T20:51:21.424Z,98459.73
2019-03-21T20:53:54.542Z,98461.39
2019-03-21T20:56:38.369Z,98469.56
2019-03-21T20:59:22.702Z,98468.94
2019-03-21T21:02:08.494Z,98471.30
2019-03-21T21:05:03.022Z,98482.86
2019-03-21T21:07:59.200Z,98480.90
2019-03-21T21:10:41.890Z,98481.41
2019-03-21T21:13:17.718Z,98481.20
2019-03-21T21:15:54.689Z,98484.22
2019-03-21T21:18:37.202Z,98486.36
2019-03-21T21:21:29.773Z,98481.83
2019-03-21T21:24:13.607Z,98486.36
2019-03-21T21:26:46.828Z,98483.38
2019-03-21T21:29:23.362Z,98479.86
2019-03-21T21:32:02.833Z,98478.52
2019-03-21T21:34:47.755Z,98479.02
2019-03-21T21:37:43.370Z,98481.41
2019-03-21T21:40:16.751Z,98484.39
2019-03-21T21:43:00.483Z,98486.36
2019-03-21T21:45:38.663Z,98482.96
2019-03-21T21:48:19.384Z,98483.26
2019-03-21T21:51:00.143Z,98488.20
2019-03-21T21:53:43.497Z,98490.38
2019-03-21T21:56:17.756Z,98479.53
2019-03-21T21:58:50.074Z,98478.94
2019-03-21T22:01:21.959Z,98479.53
2019-03-21T22:04:04.189Z,98480.06
2019-03-21T22:06:29.124Z,98491.42
2019-03-21T22:09:01.407Z,98484.18
2019-03-21T22:11:37.832Z,98486.06
2019-03-21T22:14:10.761Z,98484.81
2019-03-21T22:16:44.261Z,98486.77
2019-03-21T22:19:16.399Z,98485.61
2019-03-21T22:21:50.975Z,98487.15
2019-03-21T22:24:22.825Z,98479.39
2019-03-21T22:26:53.555Z,98474.56
2019-03-21T22:29:26.483Z,98472.27
2019-03-21T22:32:00.475Z,98473.81
2019-03-21T22:34:31.960Z,98479.09
2019-03-21T22:37:03.787Z,98471.34
2019-03-21T22:39:35.263Z,98464.77
2019-03-21T22:42:10.500Z,98473.72
2019-03-21T22:44:43.383Z,98469.84
2019-03-21T22:47:16.525Z,98472.14
2019-03-21T22:49:47.352Z,98470.38
2019-03-21T22:52:20.047Z,98475.61
2019-03-21T22:54:53.618Z,98473.77
2019-03-21T22:57:26.302Z,98469.53
2019-03-21T22:59:59.775Z,98473.42
2019-03-21T23:02:32.334Z,98468.61
2019-03-21T23:05:03.921Z,98477.50
2019-03-21T23:07:34.777Z,98469.63
2019-03-21T23:10:08.332Z,98478.91
2019-03-21T23:12:38.639Z,98478.16
2019-03-21T23:15:13.262Z,98483.52
2019-03-21T23:17:43.666Z,98475.59
2019-03-21T23:20:16.592Z,98477.73
2019-03-21T23:22:47.600Z,98469.95
2019-03-21T23:25:20.447Z,98479.68
2019-03-21T23:27:54.285Z,98475.16
2019-03-21T23:30:28.067Z,98467.13
2019-03-21T23:33:01.063Z,98468.19
2019-03-21T23:35:36.897Z,98468.19
2019-03-21T23:38:09.590Z,98462.71
2019-03-21T23:40:44.639Z,98469.63
2019-03-21T23:43:18.279Z,98469.20
2019-03-21T23:45:57.540Z,98470.17
2019-03-21T23:48:31.181Z,98474.99
2019-03-21T23:51:04.896Z,98470.63
2019-03-21T23:53:36.832Z,98469.75
2019-03-21T23:56:08.262Z,98474.48
2019-03-21T23:58:41.413Z,98478.84
